EDW267 LPMA-LSZH
Flight info
| Callsign | EDW267 |
|---|---|
| Flight time | N/A |
| Altitude | 36000 |
| Route | DEGUN DCT NASAS DCT FTM DCT TOSDI/N0449F380 DCT ZMR N976 DGO T429 TOPTU DCT TOU DCT GAI DCT MEN DCT NINUN DCT LATAM DCT ETREK DCT LTP/N0431F340 DCT SOPLO DCT OMASI DCT KINNI DCT LAMUR DCT GUDAX Z57 DOPIL |
| Aircraft | A320/M-SDE3FGHIRWY/LB1 |
Departure
| Time | 2026-05-05 15:29 |
|---|---|
| Airport | Cristiano Ronaldo International Airport (LPMA) |
Arrival
| Time | N/A |
|---|---|
| Airport | Zürich Airport (LSZH) |
| Time | Latitude | Longitude | Altitude | Speed | Heading |
|---|---|---|---|---|---|
| 2026-05-05 15:15 | 32.69413 | -16.77591 | 174 ft | 0 kts | 138° |
| 2026-05-05 15:16 | 32.69511 | -16.77434 | 176 ft | 0 kts | 138° |
| 2026-05-05 15:22 | 32.69525 | -16.77449 | 175 ft | 3 kts | 138° |
| 2026-05-05 15:22 | 32.69542 | -16.77467 | 175 ft | 1 kts | 138° |
| 2026-05-05 15:22 | 32.69559 | -16.77483 | 174 ft | 3 kts | 158° |
| 2026-05-05 15:23 | 32.69582 | -16.77488 | 174 ft | 3 kts | 199° |
| 2026-05-05 15:23 | 32.69595 | -16.77479 | 174 ft | 1 kts | 226° |
| 2026-05-05 15:23 | 32.69597 | -16.77477 | 174 ft | 0 kts | 226° |
| 2026-05-05 15:24 | 32.69587 | -16.77489 | 174 ft | 6 kts | 226° |
| 2026-05-05 15:25 | 32.69561 | -16.77522 | 174 ft | 10 kts | 226° |
| 2026-05-05 15:25 | 32.69510 | -16.77584 | 173 ft | 10 kts | 226° |
| 2026-05-05 15:25 | 32.69439 | -16.77670 | 170 ft | 15 kts | 226° |
| 2026-05-05 15:25 | 32.69351 | -16.77780 | 168 ft | 21 kts | 228° |
| 2026-05-05 15:26 | 32.69288 | -16.77918 | 165 ft | 18 kts | 272° |
| 2026-05-05 15:26 | 32.69266 | -16.78043 | 162 ft | 13 kts | 225° |
| 2026-05-05 15:26 | 32.69193 | -16.78137 | 160 ft | 25 kts | 224° |
| 2026-05-05 15:26 | 32.69076 | -16.78278 | 160 ft | 21 kts | 224° |
| 2026-05-05 15:27 | 32.68977 | -16.78386 | 157 ft | 16 kts | 210° |
| 2026-05-05 15:27 | 32.68924 | -16.78413 | 156 ft | 2 kts | 277° |
| 2026-05-05 15:27 | 32.68933 | -16.78426 | 156 ft | 7 kts | 310° |
| 2026-05-05 15:27 | 32.68950 | -16.78420 | 156 ft | 1 kts | 44° |
| 2026-05-05 15:28 | 32.68951 | -16.78418 | 156 ft | 0 kts | 44° |
| 2026-05-05 15:28 | 32.68955 | -16.78414 | 156 ft | 7 kts | 44° |
| 2026-05-05 15:28 | 32.69168 | -16.78168 | 159 ft | 76 kts | 45° |
| 2026-05-05 15:28 | 32.69680 | -16.77568 | 176 ft | 128 kts | 45° |
| 2026-05-05 15:29 | 32.70388 | -16.76736 | 388 ft | 154 kts | 43° |
| 2026-05-05 15:29 | 32.71198 | -16.75769 | 813 ft | 170 kts | 48° |
| 2026-05-05 15:29 | 32.71632 | -16.74502 | 1625 ft | 175 kts | 87° |
| 2026-05-05 15:29 | 32.71318 | -16.73028 | 2108 ft | 198 kts | 110° |
| 2026-05-05 15:30 | 32.70745 | -16.71461 | 2529 ft | 217 kts | 111° |
| 2026-05-05 15:30 | 32.70132 | -16.69765 | 3053 ft | 233 kts | 111° |
| 2026-05-05 15:30 | 32.69478 | -16.67930 | 3638 ft | 246 kts | 111° |
| 2026-05-05 15:30 | 32.68810 | -16.66033 | 4429 ft | 252 kts | 112° |
| 2026-05-05 15:31 | 32.68129 | -16.64093 | 5190 ft | 259 kts | 112° |
| 2026-05-05 15:31 | 32.67431 | -16.62091 | 5917 ft | 266 kts | 112° |
| 2026-05-05 15:31 | 32.66718 | -16.60039 | 6664 ft | 272 kts | 112° |
| 2026-05-05 15:31 | 32.66010 | -16.57933 | 7397 ft | 277 kts | 107° |
| 2026-05-05 15:32 | 32.65774 | -16.55654 | 8119 ft | 283 kts | 85° |
| 2026-05-05 15:32 | 32.66301 | -16.53400 | 8863 ft | 288 kts | 62° |
| 2026-05-05 15:32 | 32.67528 | -16.51519 | 9608 ft | 292 kts | 43° |
| 2026-05-05 15:32 | 32.69005 | -16.49844 | 10370 ft | 297 kts | 43° |
| 2026-05-05 15:33 | 32.70553 | -16.48090 | 10713 ft | 320 kts | 43° |
| 2026-05-05 15:33 | 32.72218 | -16.46202 | 10978 ft | 341 kts | 43° |
| 2026-05-05 15:33 | 32.73963 | -16.44221 | 11519 ft | 351 kts | 43° |
| 2026-05-05 15:33 | 32.75742 | -16.42196 | 12190 ft | 357 kts | 43° |
| 2026-05-05 15:34 | 32.77548 | -16.40137 | 12854 ft | 363 kts | 43° |
| 2026-05-05 15:34 | 32.79380 | -16.38043 | 13496 ft | 368 kts | 42° |
| 2026-05-05 15:34 | 32.81235 | -16.35921 | 14126 ft | 373 kts | 42° |
| 2026-05-05 15:34 | 32.83116 | -16.33769 | 14721 ft | 377 kts | 42° |
| 2026-05-05 15:35 | 32.85014 | -16.31596 | 15332 ft | 381 kts | 42° |
| 2026-05-05 15:35 | 32.86930 | -16.29400 | 15902 ft | 384 kts | 42° |
| 2026-05-05 15:35 | 32.88863 | -16.27182 | 16469 ft | 388 kts | 42° |
| 2026-05-05 15:35 | 32.90786 | -16.24974 | 17020 ft | 391 kts | 42° |
| 2026-05-05 15:36 | 32.92749 | -16.22716 | 17592 ft | 394 kts | 41° |
| 2026-05-05 15:36 | 32.94730 | -16.20438 | 18184 ft | 398 kts | 41° |
| 2026-05-05 15:36 | 32.96729 | -16.18138 | 18709 ft | 401 kts | 41° |
| 2026-05-05 15:36 | 32.98743 | -16.15820 | 19219 ft | 404 kts | 41° |
| 2026-05-05 15:37 | 33.00771 | -16.13487 | 19836 ft | 407 kts | 42° |
| 2026-05-05 15:37 | 33.02818 | -16.11135 | 20366 ft | 411 kts | 41° |
| 2026-05-05 15:37 | 33.04881 | -16.08760 | 20838 ft | 414 kts | 41° |
| 2026-05-05 15:37 | 33.06960 | -16.06361 | 21324 ft | 418 kts | 41° |
| 2026-05-05 15:38 | 33.09054 | -16.03940 | 21814 ft | 421 kts | 41° |
| 2026-05-05 15:38 | 33.11164 | -16.01500 | 22287 ft | 424 kts | 41° |
| 2026-05-05 15:38 | 33.13291 | -15.99041 | 22748 ft | 428 kts | 41° |
| 2026-05-05 15:38 | 33.15439 | -15.96559 | 23219 ft | 432 kts | 41° |
| 2026-05-05 15:39 | 33.17601 | -15.94059 | 23692 ft | 434 kts | 41° |
| 2026-05-05 15:39 | 33.19776 | -15.91539 | 24064 ft | 437 kts | 41° |
| 2026-05-05 15:39 | 33.21963 | -15.89003 | 24431 ft | 440 kts | 41° |
| 2026-05-05 15:39 | 33.24163 | -15.86449 | 24784 ft | 442 kts | 42° |
| 2026-05-05 15:40 | 33.26374 | -15.83882 | 25141 ft | 444 kts | 42° |
| 2026-05-05 15:40 | 33.28599 | -15.81299 | 25488 ft | 447 kts | 42° |
| 2026-05-05 15:40 | 33.30831 | -15.78704 | 25833 ft | 449 kts | 42° |
| 2026-05-05 15:40 | 33.33043 | -15.76129 | 26165 ft | 451 kts | 42° |
| 2026-05-05 15:41 | 33.35298 | -15.73501 | 26511 ft | 453 kts | 42° |
| 2026-05-05 15:41 | 33.37561 | -15.70861 | 26843 ft | 456 kts | 42° |
| 2026-05-05 15:41 | 33.39835 | -15.68207 | 27202 ft | 458 kts | 42° |
| 2026-05-05 15:41 | 33.42171 | -15.65602 | 27527 ft | 459 kts | 37° |
| 2026-05-05 15:42 | 33.44720 | -15.63301 | 27849 ft | 460 kts | 34° |
| 2026-05-05 15:42 | 33.47307 | -15.61023 | 28153 ft | 462 kts | 34° |
| 2026-05-05 15:42 | 33.49905 | -15.58736 | 28457 ft | 465 kts | 34° |
| 2026-05-05 15:42 | 33.52514 | -15.56434 | 28752 ft | 467 kts | 34° |
| 2026-05-05 15:43 | 33.55132 | -15.54118 | 29039 ft | 469 kts | 34° |
| 2026-05-05 15:43 | 33.57760 | -15.51785 | 29306 ft | 471 kts | 34° |
| 2026-05-05 15:43 | 33.60397 | -15.49438 | 29579 ft | 473 kts | 34° |
| 2026-05-05 15:43 | 33.63043 | -15.47080 | 29847 ft | 475 kts | 34° |
| 2026-05-05 15:44 | 33.65702 | -15.44708 | 30105 ft | 477 kts | 34° |
| 2026-05-05 15:44 | 33.68368 | -15.42331 | 30331 ft | 478 kts | 34° |
| 2026-05-05 15:44 | 33.71045 | -15.39945 | 30538 ft | 480 kts | 34° |
| 2026-05-05 15:44 | 33.73729 | -15.37554 | 30750 ft | 481 kts | 34° |
| 2026-05-05 15:45 | 33.76422 | -15.35155 | 31011 ft | 481 kts | 34° |
| 2026-05-05 15:45 | 33.79107 | -15.32761 | 31323 ft | 480 kts | 34° |
| 2026-05-05 15:45 | 33.81789 | -15.30365 | 31635 ft | 480 kts | 34° |
| 2026-05-05 15:45 | 33.84460 | -15.27974 | 31938 ft | 479 kts | 34° |
| 2026-05-05 15:46 | 33.87134 | -15.25581 | 32244 ft | 478 kts | 34° |
| 2026-05-05 15:46 | 33.89801 | -15.23197 | 32484 ft | 478 kts | 34° |
| 2026-05-05 15:46 | 33.92468 | -15.20812 | 32755 ft | 477 kts | 34° |
| 2026-05-05 15:46 | 33.95094 | -15.18461 | 33031 ft | 476 kts | 34° |
| 2026-05-05 15:47 | 33.97749 | -15.16079 | 33306 ft | 476 kts | 34° |
| 2026-05-05 15:47 | 33.99540 | -15.14468 | 33489 ft | 475 kts | 34° |
| 2026-05-05 15:47 | 34.03050 | -15.11311 | 33849 ft | 475 kts | 34° |
| 2026-05-05 15:47 | 34.05694 | -15.08936 | 34119 ft | 474 kts | 34° |
| 2026-05-05 15:48 | 34.08338 | -15.06562 | 34363 ft | 473 kts | 34° |
| 2026-05-05 15:48 | 34.10977 | -15.04189 | 34591 ft | 473 kts | 34° |
| 2026-05-05 15:48 | 34.13611 | -15.01813 | 34816 ft | 473 kts | 34° |
| 2026-05-05 15:48 | 34.16243 | -14.99433 | 35013 ft | 473 kts | 34° |
| 2026-05-05 15:49 | 34.18871 | -14.97054 | 35228 ft | 473 kts | 34° |
| 2026-05-05 15:49 | 34.21502 | -14.94671 | 35423 ft | 473 kts | 34° |
| 2026-05-05 15:49 | 34.24137 | -14.92287 | 35610 ft | 473 kts | 34° |
| 2026-05-05 15:49 | 34.26764 | -14.89906 | 35797 ft | 473 kts | 34° |
| 2026-05-05 15:50 | 34.29395 | -14.87522 | 35978 ft | 472 kts | 34° |
| 2026-05-05 15:50 | 34.32024 | -14.85134 | 36131 ft | 473 kts | 34° |
| 2026-05-05 15:50 | 34.34654 | -14.82744 | 36167 ft | 473 kts | 34° |
| 2026-05-05 15:51 | 34.39911 | -14.77973 | 36166 ft | 472 kts | 34° |
| 2026-05-05 15:51 | 34.45168 | -14.73196 | 36164 ft | 472 kts | 34° |
| 2026-05-05 15:52 | 34.50423 | -14.68403 | 36168 ft | 472 kts | 34° |
| 2026-05-05 15:52 | 34.55674 | -14.63613 | 36169 ft | 472 kts | 34° |
| 2026-05-05 15:53 | 34.60919 | -14.58805 | 36169 ft | 473 kts | 34° |
| 2026-05-05 15:53 | 34.66168 | -14.53990 | 36170 ft | 473 kts | 34° |
| 2026-05-05 15:54 | 34.71424 | -14.49180 | 36170 ft | 473 kts | 34° |
| 2026-05-05 15:54 | 34.76685 | -14.44356 | 36169 ft | 474 kts | 34° |
| 2026-05-05 15:55 | 34.81900 | -14.39540 | 36170 ft | 474 kts | 34° |
| 2026-05-05 15:55 | 34.87160 | -14.34679 | 36172 ft | 475 kts | 34° |
| 2026-05-05 15:56 | 34.92424 | -14.29814 | 36172 ft | 475 kts | 34° |
| 2026-05-05 15:56 | 34.97693 | -14.24957 | 36172 ft | 475 kts | 34° |
| 2026-05-05 15:57 | 35.02962 | -14.20082 | 36172 ft | 476 kts | 34° |
| 2026-05-05 15:57 | 35.08225 | -14.15187 | 36177 ft | 476 kts | 34° |
| 2026-05-05 15:58 | 35.13494 | -14.10280 | 36173 ft | 476 kts | 34° |
| 2026-05-05 15:58 | 35.18769 | -14.05375 | 36174 ft | 477 kts | 34° |
| 2026-05-05 15:59 | 35.24044 | -14.00455 | 36173 ft | 477 kts | 34° |
| 2026-05-05 15:59 | 35.29313 | -13.95529 | 36175 ft | 477 kts | 34° |
| 2026-05-05 16:00 | 35.34551 | -13.90636 | 36175 ft | 477 kts | 34° |
| 2026-05-05 16:00 | 35.39823 | -13.85687 | 36174 ft | 477 kts | 34° |
| 2026-05-05 16:01 | 35.45092 | -13.80734 | 36174 ft | 478 kts | 34° |
| 2026-05-05 16:01 | 35.50372 | -13.75775 | 36178 ft | 478 kts | 34° |
| 2026-05-05 16:02 | 35.55650 | -13.70797 | 36177 ft | 478 kts | 34° |
| 2026-05-05 16:02 | 35.60921 | -13.65824 | 36176 ft | 478 kts | 34° |
| 2026-05-05 16:03 | 35.66190 | -13.60839 | 36172 ft | 478 kts | 34° |
| 2026-05-05 16:03 | 35.71451 | -13.55843 | 36182 ft | 478 kts | 34° |
| 2026-05-05 16:04 | 35.76715 | -13.50850 | 36172 ft | 478 kts | 34° |